Time,TemperatureF,DewpointF,PressureIn,WindDirection,WindDirectionDegrees,WindSpeedMPH,WindSpeedGustMPH,Humidity,HourlyPrecipIn,Conditions,Clouds,dailyrainin,SoftwareType,DateUTC
2014-01-26 00:01:00,6.4,2.3,29.60,East,98,1.2,1.2,83,0.00,CLR,SKC,0.00,WeatherDisplay:10.37,2014-01-26 06:01:00,
2014-01-26 00:06:00,6.5,2.4,29.59,East,91,1.2,1.2,83,0.00,CLR,SKC,0.00,WeatherDisplay:10.37,2014-01-26 06:06:00,
2014-01-26 00:11:00,6.6,2.5,29.58,ESE,107,10.4,10.4,83,0.00,CLR,SKC,0.00,WeatherDisplay:10.37,2014-01-26 06:11:00,
2014-01-26 00:16:00,6.7,2.6,29.58,ESE,109,2.0,2.0,83,0.00,CLR,SKC,0.00,WeatherDisplay:10.37,2014-01-26 06:16:00,
2014-01-26 00:21:00,6.8,2.7,29.58,East,92,2.3,2.3,83,0.00,CLR,SKC,0.00,WeatherDisplay:10.37,2014-01-26 06:21:00,
2014-01-26 00:26:00,6.9,2.8,29.58,ESE,104,6.9,6.9,83,0.00,CLR,SKC,0.00,WeatherDisplay:10.37,2014-01-26 06:26:00,
2014-01-26 00:31:00,6.9,2.8,29.57,ESE,111,5.8,5.8,83,0.00,CLR,SKC,0.00,WeatherDisplay:10.37,2014-01-26 06:31:00,
2014-01-26 00:36:00,6.9,2.8,29.57,East,99,11.5,11.5,83,0.00,CLR,SKC,0.00,WeatherDisplay:10.37,2014-01-26 06:36:00,
2014-01-26 00:41:00,7.0,2.9,29.56,SE,126,1.2,0.0,83,0.00,CLR,SKC,0.00,WeatherDisplay:10.37,2014-01-26 06:41:00,
2014-01-26 00:46:00,7.0,2.9,29.56,SE,134,6.9,6.9,83,0.00,CLR,SKC,0.00,WeatherDisplay:10.37,2014-01-26 06:46:00,
2014-01-26 00:51:00,7.1,3.0,29.56,East,101,5.8,5.8,83,0.00,CLR,SKC,0.00,WeatherDisplay:10.37,2014-01-26 06:51:00,
2014-01-26 00:56:00,7.2,3.1,29.55,SE,133,3.5,3.5,83,0.00,CLR,SKC,0.00,WeatherDisplay:10.37,2014-01-26 06:56:00,
2014-01-26 01:01:00,7.3,3.2,29.55,ESE,105,9.2,9.2,83,0.00,CLR,SKC,0.00,WeatherDisplay:10.37,2014-01-26 07:01:00,
2014-01-26 01:06:00,7.3,3.5,29.54,East,94,6.9,6.9,84,0.00,CLR,SKC,0.00,WeatherDisplay:10.37,2014-01-26 07:06:00,
2014-01-26 01:11:00,7.4,3.6,29.53,East,92,1.2,1.2,84,0.00,CLR,SKC,0.00,WeatherDisplay:10.37,2014-01-26 07:11:00,
2014-01-26 01:16:00,7.5,3.7,29.53,ESE,121,10.4,10.4,84,0.00,CLR,SKC,0.00,WeatherDisplay:10.37,2014-01-26 07:16:00,
2014-01-26 01:21:00,7.6,3.8,29.53,ESE,105,11.5,11.5,84,0.00,CLR,SKC,0.00,WeatherDisplay:10.37,2014-01-26 07:21:00,
2014-01-26 01:26:00,7.6,3.8,29.52,East,98,5.0,5.0,84,0.00,CLR,SKC,0.00,WeatherDisplay:10.37,2014-01-26 07:26:00,
2014-01-26 01:31:00,7.5,3.7,29.51,East,96,10.4,10.4,84,0.00,CLR,SKC,0.00,WeatherDisplay:10.37,2014-01-26 07:31:00,
2014-01-26 01:36:00,7.5,3.7,29.51,ESE,118,15.0,15.0,84,0.00,CLR,SKC,0.00,WeatherDisplay:10.37,2014-01-26 07:36:00,
2014-01-26 01:41:00,7.6,3.8,29.50,ESE,106,15.0,15.0,84,0.00,CLR,SKC,0.00,WeatherDisplay:10.37,2014-01-26 07:41:00,
2014-01-26 01:46:00,7.7,3.9,29.50,East,101,2.3,2.3,84,0.00,CLR,SKC,0.00,WeatherDisplay:10.37,2014-01-26 07:46:00,
2014-01-26 01:51:00,7.8,4.2,29.50,ESE,109,8.1,8.1,85,0.00,CLR,SKC,0.00,WeatherDisplay:10.37,2014-01-26 07:51:00,
2014-01-26 01:56:00,7.9,4.3,29.50,East,81,10.4,10.4,85,0.00,CLR,SKC,0.00,WeatherDisplay:10.37,2014-01-26 07:56:00,
2014-01-26 02:01:00,8.0,4.4,29.50,ESE,104,0.0,0.0,85,0.00,CLR,SKC,0.00,WeatherDisplay:10.37,2014-01-26 08:01:00,
2014-01-26 02:06:00,8.1,4.5,29.50,ESE,106,6.9,6.9,85,0.00,CLR,SKC,0.00,WeatherDisplay:10.37,2014-01-26 08:06:00,
2014-01-26 02:11:00,8.1,4.5,29.50,ESE,105,6.9,6.9,85,0.00,CLR,SKC,0.00,WeatherDisplay:10.37,2014-01-26 08:11:00,
2014-01-26 02:16:00,8.2,4.6,29.50,ESE,107,2.3,2.3,85,0.00,CLR,SKC,0.00,WeatherDisplay:10.37,2014-01-26 08:16:00,
2014-01-26 02:21:00,8.3,4.7,29.50,East,95,2.3,0.0,85,0.00,CLR,SKC,0.00,WeatherDisplay:10.37,2014-01-26 08:21:00,
2014-01-26 02:26:00,8.3,4.7,29.51,East,101,2.3,2.3,85,0.00,CLR,SKC,0.00,WeatherDisplay:10.37,2014-01-26 08:26:00,
2014-01-26 02:31:00,8.3,4.7,29.51,ESE,109,1.2,1.2,85,0.00,CLR,SKC,0.00,WeatherDisplay:10.37,2014-01-26 08:31:00,
2014-01-26 02:36:00,8.3,4.7,29.51,ESE,111,1.2,0.0,85,0.00,CLR,SKC,0.00,WeatherDisplay:10.37,2014-01-26 08:36:00,
2014-01-26 02:41:00,8.2,4.4,29.50,ENE,75,1.2,1.2,84,0.00,CLR,SKC,0.00,WeatherDisplay:10.37,2014-01-26 08:41:00,
2014-01-26 02:46:00,8.2,4.6,29.49,ESE,105,2.3,2.5,85,0.00,CLR,SKC,0.00,WeatherDisplay:10.37,2014-01-26 08:46:00,
2014-01-26 02:51:00,8.1,4.3,29.49,ESE,112,6.9,6.9,84,0.00,CLR,SKC,0.00,WeatherDisplay:10.37,2014-01-26 08:51:00,
2014-01-26 02:56:00,8.0,4.2,29.48,ESE,103,1.2,0.0,84,0.00,CLR,SKC,0.00,WeatherDisplay:10.37,2014-01-26 08:56:00,
2014-01-26 03:01:00,8.1,4.3,29.49,East,90,1.0,1.0,84,0.00,CLR,SKC,0.00,WeatherDisplay:10.37,2014-01-26 09:01:00,
2014-01-26 03:06:00,8.1,4.3,29.49,East,92,0.0,0.0,84,0.00,CLR,SKC,0.00,WeatherDisplay:10.37,2014-01-26 09:06:00,
2014-01-26 03:11:00,8.0,4.2,29.50,East,101,0.0,0.0,84,0.00,CLR,SKC,0.00,WeatherDisplay:10.37,2014-01-26 09:11:00,
2014-01-26 03:16:00,8.0,4.2,29.50,East,101,0.0,0.0,84,0.00,CLR,SKC,0.00,WeatherDisplay:10.37,2014-01-26 09:16:00,
2014-01-26 03:21:00,8.0,4.2,29.50,East,99,0.0,0.0,84,0.00,CLR,SKC,0.00,WeatherDisplay:10.37,2014-01-26 09:21:00,
2014-01-26 03:26:00,7.9,4.1,29.50,East,100,0.0,0.0,84,0.00,CLR,SKC,0.00,WeatherDisplay:10.37,2014-01-26 09:26:00,
2014-01-26 03:31:00,7.9,4.1,29.49,East,100,0.0,0.0,84,0.00,CLR,SKC,0.00,WeatherDisplay:10.37,2014-01-26 09:31:00,
2014-01-26 03:36:00,7.9,4.1,29.48,East,94,1.2,1.2,84,0.00,CLR,SKC,0.00,WeatherDisplay:10.37,2014-01-26 09:36:00,
2014-01-26 03:41:00,7.9,4.1,29.47,East,98,1.2,1.2,84,0.00,CLR,SKC,0.00,WeatherDisplay:10.37,2014-01-26 09:41:00,
2014-01-26 03:46:00,7.9,4.1,29.48,ESE,107,0.0,0.0,84,0.00,CLR,SKC,0.00,WeatherDisplay:10.37,2014-01-26 09:46:00,
2014-01-26 03:51:00,8.0,4.2,29.48,East,101,1.2,1.2,84,0.00,CLR,SKC,0.00,WeatherDisplay:10.37,2014-01-26 09:51:00,
2014-01-26 03:56:00,8.0,4.2,29.48,East,88,0.0,0.0,84,0.00,CLR,SKC,0.00,WeatherDisplay:10.37,2014-01-26 09:56:00,
2014-01-26 04:01:00,8.1,4.5,29.48,East,89,0.0,0.0,85,0.00,CLR,SKC,0.00,WeatherDisplay:10.37,2014-01-26 10:01:00,
2014-01-26 04:06:00,8.2,4.6,29.49,East,89,0.0,0.0,85,0.00,CLR,SKC,0.00,WeatherDisplay:10.37,2014-01-26 10:06:00,
2014-01-26 04:11:00,8.3,4.7,29.49,East,89,0.0,0.0,85,0.00,CLR,SKC,0.00,WeatherDisplay:10.37,2014-01-26 10:11:00,
2014-01-26 04:16:00,8.3,4.5,29.49,East,90,0.0,0.0,84,0.00,CLR,SKC,0.00,WeatherDisplay:10.37,2014-01-26 10:16:00,
2014-01-26 04:21:00,8.3,4.5,29.49,East,90,0.0,0.0,84,0.00,CLR,SKC,0.00,WeatherDisplay:10.37,2014-01-26 10:21:00,
2014-01-26 04:26:00,8.3,4.7,29.49,East,90,0.0,0.0,85,0.00,CLR,SKC,0.00,WeatherDisplay:10.37,2014-01-26 10:26:00,
2014-01-26 04:31:00,8.3,4.7,29.50,East,90,0.0,0.0,85,0.00,CLR,SKC,0.00,WeatherDisplay:10.37,2014-01-26 10:31:00,
2014-01-26 04:36:00,8.2,4.6,29.50,East,90,0.0,0.0,85,0.00,CLR,SKC,0.00,WeatherDisplay:10.37,2014-01-26 10:36:00,
2014-01-26 04:41:00,8.3,4.7,29.50,East,90,0.0,0.0,85,0.00,CLR,SKC,0.00,WeatherDisplay:10.37,2014-01-26 10:41:00,
2014-01-26 04:46:00,8.2,4.6,29.50,East,90,0.0,0.0,85,0.00,CLR,SKC,0.00,WeatherDisplay:10.37,2014-01-26 10:46:00,
2014-01-26 04:51:00,8.1,4.3,29.48,East,90,0.0,0.0,84,0.00,CLR,SKC,0.00,WeatherDisplay:10.37,2014-01-26 10:51:00,
2014-01-26 04:56:00,8.0,4.2,29.47,East,91,0.0,0.0,84,0.00,CLR,SKC,0.00,WeatherDisplay:10.37,2014-01-26 10:56:00,
2014-01-26 05:01:00,7.7,3.9,29.47,East,92,0.0,0.0,84,0.00,CLR,SKC,0.00,WeatherDisplay:10.37,2014-01-26 11:01:00,
2014-01-26 05:06:00,7.6,3.8,29.49,East,92,0.0,0.0,84,0.00,CLR,SKC,0.00,WeatherDisplay:10.37,2014-01-26 11:06:00,
2014-01-26 05:11:00,7.4,3.6,29.48,East,92,0.0,0.0,84,0.00,CLR,SKC,0.00,WeatherDisplay:10.37,2014-01-26 11:11:00,
2014-01-26 05:16:00,7.4,3.6,29.48,East,91,0.0,0.0,84,0.00,CLR,SKC,0.00,WeatherDisplay:10.37,2014-01-26 11:16:00,
2014-01-26 05:21:00,7.3,3.5,29.47,East,92,0.0,0.0,84,0.00,CLR,SKC,0.00,WeatherDisplay:10.37,2014-01-26 11:21:00,
2014-01-26 05:26:00,7.2,3.4,29.47,East,92,0.0,0.0,84,0.00,CLR,SKC,0.00,WeatherDisplay:10.37,2014-01-26 11:26:00,
2014-01-26 05:31:00,7.2,3.4,29.48,East,91,0.0,0.0,84,0.00,CLR,SKC,0.00,WeatherDisplay:10.37,2014-01-26 11:31:00,
2014-01-26 05:36:00,7.2,3.4,29.48,East,92,0.0,0.0,84,0.00,CLR,SKC,0.00,WeatherDisplay:10.37,2014-01-26 11:36:00,
2014-01-26 05:41:00,7.3,3.7,29.48,East,92,0.0,0.0,85,0.00,CLR,SKC,0.00,WeatherDisplay:10.37,2014-01-26 11:41:00,
2014-01-26 05:46:00,7.4,3.8,29.48,East,92,0.0,0.0,85,0.00,CLR,SKC,0.00,WeatherDisplay:10.37,2014-01-26 11:46:00,
2014-01-26 05:51:00,7.3,3.5,29.48,East,91,0.0,0.0,84,0.00,CLR,SKC,0.00,WeatherDisplay:10.37,2014-01-26 11:51:00,
2014-01-26 05:56:00,7.4,3.8,29.48,East,92,0.0,0.0,85,0.00,CLR,SKC,0.00,WeatherDisplay:10.37,2014-01-26 11:56:00,
2014-01-26 06:01:00,7.4,3.8,29.48,East,88,0.0,0.0,85,0.00,CLR,SKC,0.00,WeatherDisplay:10.37,2014-01-26 12:01:00,
2014-01-26 06:06:00,7.4,3.8,29.49,ENE,68,0.0,0.0,85,0.00,CLR,SKC,0.00,WeatherDisplay:10.37,2014-01-26 12:06:00,
2014-01-26 06:11:00,7.2,3.4,29.49,ENE,68,0.0,0.0,84,0.00,CLR,SKC,0.00,WeatherDisplay:10.37,2014-01-26 12:11:00,
2014-01-26 06:16:00,7.3,3.7,29.48,ENE,68,0.0,0.0,85,0.00,CLR,SKC,0.00,WeatherDisplay:10.37,2014-01-26 12:16:00,
2014-01-26 06:21:00,7.4,3.8,29.49,ENE,69,0.0,0.0,85,0.00,CLR,SKC,0.00,WeatherDisplay:10.37,2014-01-26 12:21:00,
2014-01-26 06:26:00,7.3,3.5,29.50,ENE,69,0.0,0.0,84,0.00,CLR,SKC,0.00,WeatherDisplay:10.37,2014-01-26 12:26:00,
2014-01-26 06:31:00,7.2,3.4,29.51,ENE,68,0.0,0.0,84,0.00,CLR,SKC,0.00,WeatherDisplay:10.37,2014-01-26 12:31:00,
2014-01-26 06:36:00,7.1,3.3,29.51,ENE,69,0.0,0.0,84,0.00,CLR,SKC,0.00,WeatherDisplay:10.37,2014-01-26 12:36:00,
2014-01-26 06:41:00,7.1,3.3,29.52,ENE,68,0.0,0.0,84,0.00,CLR,SKC,0.00,WeatherDisplay:10.37,2014-01-26 12:41:00,
2014-01-26 06:46:00,7.1,3.3,29.52,ENE,68,0.0,0.0,84,0.00,CLR,SKC,0.00,WeatherDisplay:10.37,2014-01-26 12:46:00,
2014-01-26 06:51:00,7.2,3.4,29.52,ENE,69,0.0,0.0,84,0.00,CLR,SKC,0.00,WeatherDisplay:10.37,2014-01-26 12:51:00,
2014-01-26 06:56:00,7.2,3.4,29.52,WNW,296,0.0,0.0,84,0.00,CLR,SKC,0.00,WeatherDisplay:10.37,2014-01-26 12:56:00,
2014-01-26 07:01:00,7.2,3.4,29.52,West,276,0.0,0.0,84,0.00,CLR,SKC,0.00,WeatherDisplay:10.37,2014-01-26 13:01:00,
2014-01-26 07:06:00,7.2,3.4,29.52,WSW,244,2.3,2.3,84,0.00,CLR,SKC,0.00,WeatherDisplay:10.37,2014-01-26 13:06:00,
2014-01-26 07:11:00,7.3,3.5,29.51,WSW,253,0.0,0.0,84,0.00,CLR,SKC,0.00,WeatherDisplay:10.37,2014-01-26 13:11:00,
2014-01-26 07:16:00,7.4,3.6,29.52,West,273,2.3,2.3,84,0.00,CLR,SKC,0.00,WeatherDisplay:10.37,2014-01-26 13:16:00,
2014-01-26 07:21:00,7.5,3.7,29.52,West,271,2.3,2.3,84,0.00,CLR,SKC,0.00,WeatherDisplay:10.37,2014-01-26 13:21:00,
2014-01-26 07:26:00,7.6,3.8,29.52,West,269,0.0,0.0,84,0.00,CLR,SKC,0.00,WeatherDisplay:10.37,2014-01-26 13:26:00,
2014-01-26 07:31:00,7.7,3.9,29.52,WSW,244,2.3,2.3,84,0.00,CLR,SKC,0.00,WeatherDisplay:10.37,2014-01-26 13:31:00,
2014-01-26 07:36:00,7.8,4.0,29.52,WNW,287,2.3,2.3,84,0.00,CLR,SKC,0.00,WeatherDisplay:10.37,2014-01-26 13:36:00,
2014-01-26 07:41:00,7.9,4.3,29.53,West,275,3.5,3.5,85,0.00,CLR,SKC,0.00,WeatherDisplay:10.37,2014-01-26 13:41:00,
2014-01-26 07:46:00,8.0,4.4,29.52,WNW,284,2.0,2.0,85,0.00,CLR,SKC,0.00,WeatherDisplay:10.37,2014-01-26 13:46:00,
2014-01-26 07:51:00,8.1,4.5,29.53,WNW,291,3.5,3.5,85,0.00,CLR,SKC,0.00,WeatherDisplay:10.37,2014-01-26 13:51:00,
2014-01-26 07:56:00,8.4,4.8,29.53,West,278,3.5,3.5,85,0.00,CLR,SKC,0.00,WeatherDisplay:10.37,2014-01-26 13:56:00,
2014-01-26 08:01:00,8.7,5.1,29.53,WNW,296,10.0,10.0,85,0.00,CLR,SKC,0.00,WeatherDisplay:10.37,2014-01-26 14:01:00,
2014-01-26 08:06:00,9.2,5.9,29.53,West,269,7.0,7.0,86,0.00,CLR,SKC,0.00,WeatherDisplay:10.37,2014-01-26 14:06:00,
2014-01-26 08:11:00,9.3,6.0,29.53,West,260,12.7,12.7,86,0.00,CLR,SKC,0.00,WeatherDisplay:10.37,2014-01-26 14:11:00,
2014-01-26 08:16:00,9.4,6.1,29.52,West,275,4.6,4.6,86,0.00,CLR,SKC,0.00,WeatherDisplay:10.37,2014-01-26 14:16:00,
2014-01-26 08:21:00,9.5,6.2,29.52,SW,230,12.0,12.0,86,0.00,CLR,SKC,0.00,WeatherDisplay:10.37,2014-01-26 14:21:00,
2014-01-26 08:26:00,9.7,6.4,29.51,West,281,11.5,11.5,86,0.00,CLR,SKC,0.00,WeatherDisplay:10.37,2014-01-26 14:26:00,
2014-01-26 08:31:00,9.8,6.5,29.50,WSW,242,9.2,9.2,86,0.00,CLR,SKC,0.00,WeatherDisplay:10.37,2014-01-26 14:31:00,
2014-01-26 08:36:00,9.9,6.6,29.51,West,260,11.0,11.0,86,0.00,CLR,SKC,0.00,WeatherDisplay:10.37,2014-01-26 14:36:00,
2014-01-26 08:41:00,9.9,6.6,29.51,WSW,243,10.4,10.4,86,0.00,CLR,SKC,0.00,WeatherDisplay:10.37,2014-01-26 14:41:00,
2014-01-26 08:46:00,10.1,6.7,29.51,West,268,11.5,11.5,86,0.00,CLR,SKC,0.00,WeatherDisplay:10.37,2014-01-26 14:46:00,
2014-01-26 08:51:00,10.3,6.7,29.52,WSW,246,9.2,9.2,85,0.00,CLR,SKC,0.00,WeatherDisplay:10.37,2014-01-26 14:51:00,
2014-01-26 08:56:00,10.5,6.9,29.53,WSW,245,16.1,16.1,85,0.00,CLR,SKC,0.00,WeatherDisplay:10.37,2014-01-26 14:56:00,
2014-01-26 09:01:00,10.6,7.0,29.52,West,275,3.5,3.5,85,0.00,CLR,SKC,0.00,WeatherDisplay:10.37,2014-01-26 15:01:00,
2014-01-26 09:06:00,10.8,7.2,29.51,West,273,11.5,11.5,85,0.00,CLR,SKC,0.00,WeatherDisplay:10.37,2014-01-26 15:06:00,
2014-01-26 09:11:00,10.9,7.3,29.51,WNW,288,6.0,6.0,85,0.00,CLR,SKC,0.00,WeatherDisplay:10.37,2014-01-26 15:11:00,
2014-01-26 09:16:00,11.1,7.5,29.51,WNW,292,10.0,10.0,85,0.00,CLR,SKC,0.00,WeatherDisplay:10.37,2014-01-26 15:16:00,
2014-01-26 09:21:00,11.3,7.7,29.50,West,271,5.8,5.8,85,0.00,CLR,SKC,0.00,WeatherDisplay:10.37,2014-01-26 15:21:00,
2014-01-26 09:26:00,11.7,8.1,29.51,WNW,296,11.5,11.5,85,0.00,CLR,SKC,0.00,WeatherDisplay:10.37,2014-01-26 15:26:00,
2014-01-26 09:31:00,12.0,8.1,29.51,WNW,286,11.5,11.5,84,0.00,CLR,SKC,0.00,WeatherDisplay:10.37,2014-01-26 15:31:00,
2014-01-26 09:36:00,12.3,8.4,29.51,WNW,296,15.0,15.0,84,0.00,CLR,SKC,0.00,WeatherDisplay:10.37,2014-01-26 15:36:00,
2014-01-26 09:41:00,12.7,8.8,29.52,WNW,282,5.8,5.8,84,0.00,CLR,SKC,0.00,WeatherDisplay:10.37,2014-01-26 15:41:00,
2014-01-26 09:46:00,13.1,11.2,29.52,NW,304,6.9,6.9,92,0.00,CLR,SKC,0.00,WeatherDisplay:10.37,2014-01-26 15:46:00,
2014-01-26 09:51:00,13.2,9.0,29.52,West,272,10.4,10.4,83,0.00,CLR,SKC,0.00,WeatherDisplay:10.37,2014-01-26 15:51:00,
2014-01-26 09:56:00,13.3,9.1,29.53,West,277,6.9,6.9,83,0.00,CLR,SKC,0.00,WeatherDisplay:10.37,2014-01-26 15:56:00,
2014-01-26 10:01:00,13.5,9.3,29.52,NW,309,12.7,12.7,83,0.00,CLR,SKC,0.00,WeatherDisplay:10.37,2014-01-26 16:01:00,
2014-01-26 10:06:00,13.6,9.4,29.51,WNW,284,15.0,15.0,83,0.00,CLR,SKC,0.00,WeatherDisplay:10.37,2014-01-26 16:06:00,
2014-01-26 10:11:00,13.8,9.3,29.50,West,281,6.9,6.9,82,0.00,CLR,SKC,0.00,WeatherDisplay:10.37,2014-01-26 16:11:00,
2014-01-26 10:16:00,14.1,9.6,29.52,WNW,296,11.5,11.5,82,0.00,CLR,SKC,0.00,WeatherDisplay:10.37,2014-01-26 16:16:00,
2014-01-26 10:21:00,14.3,9.8,29.52,West,264,15.0,15.0,82,0.00,CLR,SKC,0.00,WeatherDisplay:10.37,2014-01-26 16:21:00,
2014-01-26 10:26:00,14.5,9.7,29.53,WNW,302,16.1,16.1,81,0.00,CLR,SKC,0.00,WeatherDisplay:10.37,2014-01-26 16:26:00,
2014-01-26 10:31:00,14.5,9.7,29.53,NW,323,12.7,12.7,81,0.00,CLR,SKC,0.00,WeatherDisplay:10.37,2014-01-26 16:31:00,
2014-01-26 10:36:00,14.7,9.9,29.53,West,281,12.7,12.7,81,0.00,CLR,SKC,0.00,WeatherDisplay:10.37,2014-01-26 16:36:00,
2014-01-26 10:41:00,14.8,9.7,29.53,West,277,11.5,11.5,80,0.00,CLR,SKC,0.00,WeatherDisplay:10.37,2014-01-26 16:41:00,
2014-01-26 10:46:00,14.9,9.8,29.53,NW,322,16.1,16.1,80,0.00,CLR,SKC,0.00,WeatherDisplay:10.37,2014-01-26 16:46:00,
2014-01-26 10:51:00,15.0,9.9,29.54,West,272,11.5,11.5,80,0.00,CLR,SKC,0.00,WeatherDisplay:10.37,2014-01-26 16:51:00,
2014-01-26 10:56:00,15.2,10.1,29.54,West,273,11.5,11.5,80,0.00,CLR,SKC,0.00,WeatherDisplay:10.37,2014-01-26 16:56:00,
2014-01-26 11:01:00,15.3,10.2,29.55,West,270,10.4,10.4,80,0.00,CLR,SKC,0.00,WeatherDisplay:10.37,2014-01-26 17:01:00,
2014-01-26 11:06:00,15.5,10.4,29.54,NW,305,3.5,4.3,80,0.00,CLR,SKC,0.00,WeatherDisplay:10.37,2014-01-26 17:06:00,
2014-01-26 11:11:00,15.6,10.5,29.54,West,261,6.0,6.0,80,0.00,CLR,SKC,0.00,WeatherDisplay:10.37,2014-01-26 17:11:00,
2014-01-26 11:16:00,15.8,10.7,29.55,WNW,284,15.0,15.0,80,0.00,CLR,SKC,0.00,WeatherDisplay:10.37,2014-01-26 17:16:00,
2014-01-26 11:21:00,15.9,10.5,29.55,WNW,290,17.3,17.3,79,0.00,CLR,SKC,0.00,WeatherDisplay:10.37,2014-01-26 17:21:00,
2014-01-26 11:26:00,16.0,10.6,29.54,NW,322,11.5,11.5,79,0.00,CLR,SKC,0.00,WeatherDisplay:10.37,2014-01-26 17:26:00,
2014-01-26 11:31:00,16.1,10.7,29.53,West,281,13.8,13.8,79,0.00,CLR,SKC,0.00,WeatherDisplay:10.37,2014-01-26 17:31:00,
2014-01-26 11:36:00,16.2,10.5,29.53,WNW,295,11.5,11.5,78,0.00,CLR,SKC,0.00,WeatherDisplay:10.37,2014-01-26 17:36:00,
2014-01-26 11:41:00,16.2,10.5,29.53,West,280,13.8,13.8,78,0.00,CLR,SKC,0.00,WeatherDisplay:10.37,2014-01-26 17:41:00,
2014-01-26 11:46:00,16.2,10.5,29.53,WNW,286,15.0,15.0,78,0.00,CLR,SKC,0.00,WeatherDisplay:10.37,2014-01-26 17:46:00,
2014-01-26 11:51:00,16.2,10.8,29.54,West,275,11.5,11.5,79,0.00,CLR,SKC,0.00,WeatherDisplay:10.37,2014-01-26 17:51:00,
2014-01-26 11:56:00,16.1,10.4,29.54,West,274,6.9,6.9,78,0.00,CLR,SKC,0.00,WeatherDisplay:10.37,2014-01-26 17:56:00,
2014-01-26 12:01:00,16.1,10.2,29.55,West,273,19.6,19.6,77,0.00,CLR,SKC,0.00,WeatherDisplay:10.37,2014-01-26 18:01:00,
2014-01-26 12:06:00,16.1,9.9,29.54,WNW,298,10.4,10.4,76,0.00,CLR,SKC,0.00,WeatherDisplay:10.37,2014-01-26 18:06:00,
2014-01-26 12:11:00,16.3,10.1,29.54,WNW,300,6.9,6.9,76,0.00,CLR,SKC,0.00,WeatherDisplay:10.37,2014-01-26 18:11:00,
2014-01-26 12:16:00,16.3,9.8,29.54,West,264,21.9,21.9,75,0.00,CLR,SKC,0.00,WeatherDisplay:10.37,2014-01-26 18:16:00,
2014-01-26 12:21:00,15.9,8.8,29.54,WNW,303,19.6,19.6,73,0.00,CLR,SKC,0.00,WeatherDisplay:10.37,2014-01-26 18:21:00,
2014-01-26 12:26:00,15.6,9.4,29.54,WNW,300,5.8,5.8,76,0.00,CLR,SKC,0.00,WeatherDisplay:10.37,2014-01-26 18:26:00,
2014-01-26 12:31:00,15.6,9.7,29.54,WNW,301,17.3,17.3,77,0.00,CLR,SKC,0.00,WeatherDisplay:10.37,2014-01-26 18:31:00,
2014-01-26 12:36:00,15.6,9.7,29.54,West,266,19.6,19.6,77,0.00,CLR,SKC,0.00,WeatherDisplay:10.37,2014-01-26 18:36:00,
2014-01-26 12:41:00,15.7,8.9,29.54,NW,304,12.7,12.7,74,0.00,CLR,SKC,0.00,WeatherDisplay:10.37,2014-01-26 18:41:00,
2014-01-26 12:46:00,16.1,9.0,29.54,NW,309,10.4,10.4,73,0.00,CLR,SKC,0.00,WeatherDisplay:10.37,2014-01-26 18:46:00,
2014-01-26 12:51:00,16.2,8.4,29.54,WNW,287,15.0,15.0,71,0.00,CLR,SKC,0.00,WeatherDisplay:10.37,2014-01-26 18:51:00,
2014-01-26 12:56:00,15.9,7.8,29.55,West,269,13.8,13.8,70,0.00,CLR,SKC,0.00,WeatherDisplay:10.37,2014-01-26 18:56:00,
2014-01-26 13:01:00,15.3,7.9,29.55,WNW,300,28.8,28.8,72,0.00,CLR,SKC,0.00,WeatherDisplay:10.37,2014-01-26 19:01:00,
2014-01-26 13:06:00,14.6,7.2,29.55,WNW,294,24.2,24.2,72,0.00,CLR,SKC,0.00,WeatherDisplay:10.37,2014-01-26 19:06:00,
2014-01-26 13:11:00,14.3,7.8,29.56,West,278,27.6,27.6,75,0.00,CLR,SKC,0.00,WeatherDisplay:10.37,2014-01-26 19:11:00,
2014-01-26 13:16:00,13.8,7.6,29.56,NW,308,23.0,23.0,76,0.00,CLR,SKC,0.00,WeatherDisplay:10.37,2014-01-26 19:16:00,
2014-01-26 13:21:00,13.7,7.5,29.57,WNW,300,19.6,19.6,76,0.00,CLR,SKC,0.00,WeatherDisplay:10.37,2014-01-26 19:21:00,
2014-01-26 13:26:00,13.7,7.2,29.57,WNW,298,21.9,21.9,75,0.00,CLR,SKC,0.00,WeatherDisplay:10.37,2014-01-26 19:26:00,
2014-01-26 13:31:00,13.9,6.8,29.58,NW,308,23.0,23.0,73,0.00,CLR,SKC,0.00,WeatherDisplay:10.37,2014-01-26 19:31:00,
2014-01-26 13:36:00,13.5,6.5,29.58,WNW,300,19.6,19.6,73,0.00,CLR,SKC,0.00,WeatherDisplay:10.37,2014-01-26 19:36:00,
2014-01-26 13:41:00,13.3,5.6,29.58,NW,305,19.6,19.6,71,0.00,CLR,SKC,0.00,WeatherDisplay:10.37,2014-01-26 19:41:00,
2014-01-26 13:46:00,13.3,6.0,29.58,NW,313,16.1,16.1,72,0.00,CLR,SKC,0.00,WeatherDisplay:10.37,2014-01-26 19:46:00,
2014-01-26 13:51:00,13.5,5.8,29.59,WNW,303,14.0,14.0,71,0.00,CLR,SKC,0.00,WeatherDisplay:10.37,2014-01-26 19:51:00,
2014-01-26 13:56:00,13.5,7.0,29.59,West,279,24.2,24.2,75,0.00,CLR,SKC,0.00,WeatherDisplay:10.37,2014-01-26 19:56:00,
2014-01-26 14:01:00,13.4,5.7,29.60,WNW,299,28.8,28.8,71,0.00,CLR,SKC,0.00,WeatherDisplay:10.37,2014-01-26 20:01:00,
2014-01-26 14:06:00,12.7,4.4,29.60,WNW,287,26.5,26.5,69,0.00,CLR,SKC,0.00,WeatherDisplay:10.37,2014-01-26 20:06:00,
2014-01-26 14:11:00,12.1,3.6,29.61,WSW,253,25.3,25.3,68,0.00,CLR,SKC,0.00,WeatherDisplay:10.37,2014-01-26 20:11:00,
2014-01-26 14:16:00,11.7,3.2,29.61,WNW,294,20.7,20.7,68,0.00,CLR,SKC,0.00,WeatherDisplay:10.37,2014-01-26 20:16:00,
2014-01-26 14:21:00,11.7,2.8,29.62,WNW,300,20.7,20.7,67,0.00,CLR,SKC,0.00,WeatherDisplay:10.37,2014-01-26 20:21:00,
2014-01-26 14:26:00,11.4,2.2,29.62,WNW,290,32.2,32.2,66,0.00,CLR,SKC,0.00,WeatherDisplay:10.37,2014-01-26 20:26:00,
2014-01-26 14:31:00,11.2,2.4,29.63,NW,315,27.6,27.6,67,0.00,CLR,SKC,0.00,WeatherDisplay:10.37,2014-01-26 20:31:00,
2014-01-26 14:36:00,10.9,1.8,29.63,NW,313,21.9,21.9,66,0.00,CLR,SKC,0.00,WeatherDisplay:10.37,2014-01-26 20:36:00,
2014-01-26 14:41:00,11.0,1.5,29.63,NW,306,24.2,24.2,65,0.00,CLR,SKC,0.00,WeatherDisplay:10.37,2014-01-26 20:41:00,
2014-01-26 14:46:00,10.9,1.1,29.64,NW,319,26.5,26.5,64,0.00,CLR,SKC,0.00,WeatherDisplay:10.37,2014-01-26 20:46:00,
2014-01-26 14:51:00,10.5,1.7,29.64,WNW,290,25.3,25.3,67,0.00,CLR,SKC,0.00,WeatherDisplay:10.37,2014-01-26 20:51:00,
2014-01-26 14:56:00,10.6,2.1,29.65,NW,304,28.8,28.8,68,0.00,CLR,SKC,0.00,WeatherDisplay:10.37,2014-01-26 20:56:00,
2014-01-26 15:01:00,10.4,1.3,29.65,WNW,291,29.9,29.9,66,0.00,CLR,SKC,0.00,WeatherDisplay:10.37,2014-01-26 21:01:00,
2014-01-26 15:06:00,10.2,0.8,29.66,North,350,23.0,23.0,65,0.00,CLR,SKC,0.00,WeatherDisplay:10.37,2014-01-26 21:06:00,
2014-01-26 15:11:00,9.9,0.5,29.66,West,264,27.6,27.6,65,0.00,CLR,SKC,0.00,WeatherDisplay:10.37,2014-01-26 21:11:00,
2014-01-26 15:16:00,9.6,-0.5,29.67,WNW,296,31.1,31.1,63,0.00,CLR,SKC,0.00,WeatherDisplay:10.37,2014-01-26 21:16:00,
2014-01-26 15:21:00,9.0,-1.1,29.68,WNW,284,28.8,28.8,63,0.00,CLR,SKC,0.00,WeatherDisplay:10.37,2014-01-26 21:21:00,
2014-01-26 15:26:00,8.1,-1.2,29.68,West,273,28.8,28.8,65,0.00,CLR,SKC,0.00,WeatherDisplay:10.37,2014-01-26 21:26:00,
2014-01-26 15:31:00,7.8,-2.2,29.69,WNW,290,33.4,33.4,63,0.00,CLR,SKC,0.00,WeatherDisplay:10.37,2014-01-26 21:31:00,
2014-01-26 15:36:00,7.0,-2.6,29.70,WNW,293,26.5,26.5,64,0.00,CLR,SKC,0.00,WeatherDisplay:10.37,2014-01-26 21:36:00,
2014-01-26 15:41:00,6.5,-3.1,29.70,NNW,328,26.5,26.5,64,0.00,CLR,SKC,0.00,WeatherDisplay:10.37,2014-01-26 21:41:00,
2014-01-26 15:46:00,5.9,-1.5,29.71,WNW,288,30.0,30.0,71,0.00,CLR,SKC,0.00,WeatherDisplay:10.37,2014-01-26 21:46:00,
2014-01-26 15:51:00,5.2,-3.1,29.71,NW,318,27.6,27.6,68,0.00,CLR,SKC,0.00,WeatherDisplay:10.37,2014-01-26 21:51:00,
2014-01-26 15:56:00,4.6,-4.0,29.72,NW,311,32.2,32.2,67,0.00,CLR,SKC,0.00,WeatherDisplay:10.37,2014-01-26 21:56:00,
2014-01-26 16:01:00,4.2,-4.3,29.73,WNW,300,26.5,26.5,67,0.00,CLR,SKC,0.00,WeatherDisplay:10.37,2014-01-26 22:01:00,
2014-01-26 16:06:00,4.0,-4.2,29.73,WNW,300,23.0,23.0,68,0.00,CLR,SKC,0.00,WeatherDisplay:10.37,2014-01-26 22:06:00,
2014-01-26 16:11:00,3.5,-4.4,29.73,WNW,296,27.6,27.6,69,0.00,CLR,SKC,0.00,WeatherDisplay:10.37,2014-01-26 22:11:00,
2014-01-26 16:16:00,3.4,-4.5,29.74,NW,304,26.5,26.5,69,0.00,CLR,SKC,0.00,WeatherDisplay:10.37,2014-01-26 22:16:00,
2014-01-26 16:21:00,3.1,-5.1,29.74,WNW,302,26.5,26.5,68,0.00,CLR,SKC,0.00,WeatherDisplay:10.37,2014-01-26 22:21:00,
2014-01-26 16:26:00,2.8,-5.7,29.76,WNW,298,19.6,19.6,67,0.00,CLR,SKC,0.00,WeatherDisplay:10.37,2014-01-26 22:26:00,
2014-01-26 16:31:00,2.5,-6.0,29.76,WNW,286,26.5,26.5,67,0.00,CLR,SKC,0.00,WeatherDisplay:10.37,2014-01-26 22:31:00,
2014-01-26 16:36:00,2.2,-6.0,29.77,WNW,300,19.6,19.6,68,0.00,CLR,SKC,0.00,WeatherDisplay:10.37,2014-01-26 22:36:00,
2014-01-26 16:41:00,1.9,-6.2,29.77,West,275,25.3,25.3,68,0.00,CLR,SKC,0.00,WeatherDisplay:10.37,2014-01-26 22:41:00,
2014-01-26 16:46:00,1.5,-6.0,29.78,WNW,284,24.2,24.2,70,0.00,CLR,SKC,0.00,WeatherDisplay:10.37,2014-01-26 22:46:00,
2014-01-26 16:51:00,1.2,-6.0,29.79,WNW,300,23.0,23.0,71,0.00,CLR,SKC,0.00,WeatherDisplay:10.37,2014-01-26 22:51:00,
2014-01-26 16:56:00,1.0,-6.5,29.79,WNW,292,19.6,19.6,70,0.00,CLR,SKC,0.00,WeatherDisplay:10.37,2014-01-26 22:56:00,
2014-01-26 17:01:00,0.9,-6.6,29.80,NW,307,17.3,17.3,70,0.00,CLR,SKC,0.00,WeatherDisplay:10.37,2014-01-26 23:01:00,
2014-01-26 17:06:00,0.7,-6.8,29.81,NNW,327,11.5,11.5,70,0.00,CLR,SKC,0.00,WeatherDisplay:10.37,2014-01-26 23:06:00,
2014-01-26 17:11:00,0.6,-6.9,29.81,NW,321,16.1,16.1,70,0.00,CLR,SKC,0.00,WeatherDisplay:10.37,2014-01-26 23:11:00,
2014-01-26 17:16:00,0.5,-6.7,29.82,NW,313,17.3,17.3,71,0.00,CLR,SKC,0.00,WeatherDisplay:10.37,2014-01-26 23:16:00,
2014-01-26 17:21:00,0.3,-6.6,29.83,WNW,290,19.6,19.6,72,0.00,CLR,SKC,0.00,WeatherDisplay:10.37,2014-01-26 23:21:00,
2014-01-26 17:26:00,0.2,-6.7,29.83,NW,325,17.3,17.3,72,0.00,CLR,SKC,0.00,WeatherDisplay:10.37,2014-01-26 23:26:00,
2014-01-26 17:31:00,0.1,-6.2,29.84,WNW,285,17.3,17.3,74,0.00,CLR,SKC,0.00,WeatherDisplay:10.37,2014-01-26 23:31:00,
2014-01-26 17:36:00,0.1,-6.2,29.84,NW,322,20.7,20.7,74,0.00,CLR,SKC,0.00,WeatherDisplay:10.37,2014-01-26 23:36:00,
2014-01-26 17:41:00,0.0,-6.6,29.85,NW,307,13.0,13.0,73,0.00,CLR,SKC,0.00,WeatherDisplay:10.37,2014-01-26 23:41:00,
2014-01-26 17:46:00,-0.1,-6.7,29.86,NW,310,16.1,16.1,73,0.00,CLR,SKC,0.00,WeatherDisplay:10.37,2014-01-26 23:46:00,
2014-01-26 17:51:00,-0.2,-6.8,29.87,NNW,342,20.7,20.7,73,0.00,CLR,SKC,0.00,WeatherDisplay:10.37,2014-01-26 23:51:00,
2014-01-26 17:56:00,-0.3,-7.2,29.88,NW,320,21.9,21.9,72,0.00,CLR,SKC,0.00,WeatherDisplay:10.37,2014-01-26 23:56:00,
2014-01-26 18:01:00,-0.4,-7.3,29.88,NW,304,21.9,21.9,72,0.00,CLR,SKC,0.00,WeatherDisplay:10.37,2014-01-27 00:01:00,
2014-01-26 18:06:00,-0.5,-7.4,29.89,WNW,290,23.0,23.0,72,0.00,CLR,SKC,0.00,WeatherDisplay:10.37,2014-01-27 00:06:00,
2014-01-26 18:11:00,-0.5,-7.4,29.89,WNW,303,13.8,14.0,72,0.00,CLR,SKC,0.00,WeatherDisplay:10.37,2014-01-27 00:11:00,
2014-01-26 18:16:00,-0.5,-7.4,29.89,WNW,299,20.7,20.7,72,0.00,CLR,SKC,0.00,WeatherDisplay:10.37,2014-01-27 00:16:00,
2014-01-26 18:21:00,-0.5,-7.4,29.90,NW,309,23.0,23.0,72,0.00,CLR,SKC,0.00,WeatherDisplay:10.37,2014-01-27 00:21:00,
2014-01-26 18:26:00,-0.5,-7.7,29.91,NW,317,17.0,17.0,71,0.00,CLR,SKC,0.00,WeatherDisplay:10.37,2014-01-27 00:26:00,
2014-01-26 18:31:00,-0.6,-8.0,29.91,WNW,303,18.4,18.4,70,0.00,CLR,SKC,0.00,WeatherDisplay:10.37,2014-01-27 00:31:00,
2014-01-26 18:36:00,-0.6,-8.3,29.91,WNW,298,26.5,26.5,69,0.00,CLR,SKC,0.00,WeatherDisplay:10.37,2014-01-27 00:36:00,
2014-01-26 18:41:00,-0.8,-8.5,29.92,WNW,298,15.0,15.0,69,0.00,CLR,SKC,0.00,WeatherDisplay:10.37,2014-01-27 00:41:00,
2014-01-26 18:46:00,-0.9,-8.6,29.93,WNW,290,20.7,20.7,69,0.00,CLR,SKC,0.00,WeatherDisplay:10.37,2014-01-27 00:46:00,
2014-01-26 18:51:00,-1.0,-8.7,29.93,WNW,284,17.0,17.0,69,0.00,CLR,SKC,0.00,WeatherDisplay:10.37,2014-01-27 00:51:00,
2014-01-26 18:56:00,-1.1,-8.8,29.94,WNW,298,28.8,28.8,69,0.00,CLR,SKC,0.00,WeatherDisplay:10.37,2014-01-27 00:56:00,
2014-01-26 19:01:00,-1.3,-9.0,29.94,WNW,298,19.6,19.6,69,0.00,CLR,SKC,0.00,WeatherDisplay:10.37,2014-01-27 01:01:00,
2014-01-26 19:06:00,-1.5,-9.5,29.95,NW,313,17.3,17.3,68,0.00,CLR,SKC,0.00,WeatherDisplay:10.37,2014-01-27 01:06:00,
2014-01-26 19:11:00,-1.6,-9.3,29.96,NNW,327,19.6,19.6,69,0.00,CLR,SKC,0.00,WeatherDisplay:10.37,2014-01-27 01:11:00,
2014-01-26 19:16:00,-1.7,-9.7,29.96,NW,323,19.6,19.6,68,0.00,CLR,SKC,0.00,WeatherDisplay:10.37,2014-01-27 01:16:00,
2014-01-26 19:21:00,-1.9,-9.6,29.97,NW,318,19.6,19.6,69,0.00,CLR,SKC,0.00,WeatherDisplay:10.37,2014-01-27 01:21:00,
2014-01-26 19:26:00,-2.0,-9.7,29.97,WNW,299,17.0,17.0,69,0.00,CLR,SKC,0.00,WeatherDisplay:10.37,2014-01-27 01:26:00,
2014-01-26 19:31:00,-2.2,-10.2,29.98,North,350,20.0,20.0,68,0.00,CLR,SKC,0.00,WeatherDisplay:10.37,2014-01-27 01:31:00,
2014-01-26 19:36:00,-2.3,-10.3,29.98,NW,308,25.3,25.3,68,0.00,CLR,SKC,0.00,WeatherDisplay:10.37,2014-01-27 01:36:00,
2014-01-26 19:41:00,-2.4,-10.4,29.99,NW,309,18.4,18.4,68,0.00,CLR,SKC,0.00,WeatherDisplay:10.37,2014-01-27 01:41:00,
2014-01-26 19:46:00,-2.5,-10.5,29.99,NNW,331,13.8,13.8,68,0.00,CLR,SKC,0.00,WeatherDisplay:10.37,2014-01-27 01:46:00,
2014-01-26 19:51:00,-2.5,-10.5,29.99,NW,307,20.7,20.7,68,0.00,CLR,SKC,0.00,WeatherDisplay:10.37,2014-01-27 01:51:00,
2014-01-26 19:56:00,-2.5,-10.8,30.00,NNW,329,19.6,19.6,67,0.00,CLR,SKC,0.00,WeatherDisplay:10.37,2014-01-27 01:56:00,
2014-01-26 20:01:00,-2.5,-10.8,30.00,NNW,329,13.0,13.0,67,0.00,CLR,SKC,0.00,WeatherDisplay:10.37,2014-01-27 02:01:00,
2014-01-26 20:06:00,-2.6,-10.9,30.01,WNW,291,23.0,23.0,67,0.00,CLR,SKC,0.00,WeatherDisplay:10.37,2014-01-27 02:06:00,
2014-01-26 20:11:00,-2.7,-11.3,30.01,WNW,300,15.0,15.0,66,0.00,CLR,SKC,0.00,WeatherDisplay:10.37,2014-01-27 02:11:00,
2014-01-26 20:16:00,-2.8,-11.4,30.02,NW,311,17.3,17.3,66,0.00,CLR,SKC,0.00,WeatherDisplay:10.37,2014-01-27 02:16:00,
2014-01-26 20:21:00,-2.8,-11.1,30.03,NNW,331,21.9,21.9,67,0.00,CLR,SKC,0.00,WeatherDisplay:10.37,2014-01-27 02:21:00,
2014-01-26 20:26:00,-2.9,-11.2,30.03,WNW,300,15.0,15.0,67,0.00,CLR,SKC,0.00,WeatherDisplay:10.37,2014-01-27 02:26:00,
2014-01-26 20:31:00,-3.0,-11.2,30.04,WNW,299,19.6,19.6,67,0.00,CLR,SKC,0.00,WeatherDisplay:10.37,2014-01-27 02:31:00,
2014-01-26 20:36:00,-3.1,-11.3,30.04,WNW,288,17.3,17.3,67,0.00,CLR,SKC,0.00,WeatherDisplay:10.37,2014-01-27 02:36:00,
2014-01-26 20:41:00,-3.3,-11.5,30.05,WNW,302,19.6,19.6,67,0.00,CLR,SKC,0.00,WeatherDisplay:10.37,2014-01-27 02:41:00,
2014-01-26 20:46:00,-3.4,-11.3,30.05,WNW,302,19.6,19.6,68,0.00,CLR,SKC,0.00,WeatherDisplay:10.37,2014-01-27 02:46:00,
2014-01-26 20:51:00,-3.5,-11.4,30.06,NW,307,15.0,15.0,68,0.00,CLR,SKC,0.00,WeatherDisplay:10.37,2014-01-27 02:51:00,
2014-01-26 20:56:00,-3.7,-11.6,30.06,WNW,294,15.0,15.0,68,0.00,CLR,SKC,0.00,WeatherDisplay:10.37,2014-01-27 02:56:00,
2014-01-26 21:01:00,-3.8,-12.0,30.07,WNW,300,17.3,17.3,67,0.00,CLR,SKC,0.00,WeatherDisplay:10.37,2014-01-27 03:01:00,
2014-01-26 21:06:00,-3.8,-12.0,30.07,NW,304,13.8,13.8,67,0.00,CLR,SKC,0.00,WeatherDisplay:10.37,2014-01-27 03:06:00,
2014-01-26 21:11:00,-3.9,-12.1,30.07,NNW,333,17.3,17.3,67,0.00,CLR,SKC,0.00,WeatherDisplay:10.37,2014-01-27 03:11:00,
2014-01-26 21:16:00,-4.0,-12.5,30.08,NW,319,13.0,13.0,66,0.00,CLR,SKC,0.00,WeatherDisplay:10.37,2014-01-27 03:16:00,
2014-01-26 21:21:00,-4.1,-12.6,30.08,NW,317,11.5,11.5,66,0.00,CLR,SKC,0.00,WeatherDisplay:10.37,2014-01-27 03:21:00,
2014-01-26 21:26:00,-4.2,-12.7,30.09,WNW,291,19.0,19.0,66,0.00,CLR,SKC,0.00,WeatherDisplay:10.37,2014-01-27 03:26:00,
2014-01-26 21:31:00,-4.2,-12.7,30.10,NW,311,19.6,19.6,66,0.00,CLR,SKC,0.00,WeatherDisplay:10.37,2014-01-27 03:31:00,
2014-01-26 21:36:00,-4.3,-12.8,30.10,WNW,298,15.0,15.0,66,0.00,CLR,SKC,0.00,WeatherDisplay:10.37,2014-01-27 03:36:00,
2014-01-26 21:41:00,-4.5,-13.0,30.10,NW,313,13.8,13.8,66,0.00,CLR,SKC,0.00,WeatherDisplay:10.37,2014-01-27 03:41:00,
2014-01-26 21:46:00,-4.6,-13.1,30.11,NW,309,16.1,16.1,66,0.00,CLR,SKC,0.00,WeatherDisplay:10.37,2014-01-27 03:46:00,
2014-01-26 21:51:00,-4.6,-13.1,30.11,NW,306,16.1,16.1,66,0.00,CLR,SKC,0.00,WeatherDisplay:10.37,2014-01-27 03:51:00,
2014-01-26 21:56:00,-4.7,-13.2,30.11,NW,313,11.5,11.5,66,0.00,CLR,SKC,0.00,WeatherDisplay:10.37,2014-01-27 03:56:00,
2014-01-26 22:01:00,-4.9,-13.4,30.11,NW,319,11.5,11.5,66,0.00,CLR,SKC,0.00,WeatherDisplay:10.37,2014-01-27 04:01:00,
2014-01-26 22:06:00,-5.0,-13.5,30.12,WNW,290,15.0,15.0,66,0.00,CLR,SKC,0.00,WeatherDisplay:10.37,2014-01-27 04:06:00,
2014-01-26 22:11:00,-5.1,-13.6,30.12,NW,319,12.7,12.7,66,0.00,CLR,SKC,0.00,WeatherDisplay:10.37,2014-01-27 04:11:00,
2014-01-26 22:16:00,-5.3,-13.8,30.13,WNW,291,16.1,16.1,66,0.00,CLR,SKC,0.00,WeatherDisplay:10.37,2014-01-27 04:16:00,
2014-01-26 22:21:00,-5.4,-13.8,30.13,WNW,284,11.5,11.5,66,0.00,CLR,SKC,0.00,WeatherDisplay:10.37,2014-01-27 04:21:00,
2014-01-26 22:26:00,-5.7,-14.1,30.13,WNW,300,19.0,19.0,66,0.00,CLR,SKC,0.00,WeatherDisplay:10.37,2014-01-27 04:26:00,
2014-01-26 22:31:00,-5.8,-14.2,30.14,WNW,294,11.5,11.5,66,0.00,CLR,SKC,0.00,WeatherDisplay:10.37,2014-01-27 04:31:00,
2014-01-26 22:36:00,-6.1,-14.5,30.14,WNW,300,11.5,11.5,66,0.00,CLR,SKC,0.00,WeatherDisplay:10.37,2014-01-27 04:36:00,
2014-01-26 22:41:00,-6.3,-14.4,30.14,WNW,288,17.3,17.3,67,0.00,CLR,SKC,0.00,WeatherDisplay:10.37,2014-01-27 04:41:00,
2014-01-26 22:46:00,-6.5,-14.6,30.14,WNW,291,17.3,17.3,67,0.00,CLR,SKC,0.00,WeatherDisplay:10.37,2014-01-27 04:46:00,
2014-01-26 22:51:00,-6.7,-15.1,30.15,WNW,284,21.9,21.9,66,0.00,CLR,SKC,0.00,WeatherDisplay:10.37,2014-01-27 04:51:00,
2014-01-26 22:56:00,-6.9,-15.6,30.15,NW,321,18.4,18.4,65,0.00,CLR,SKC,0.00,WeatherDisplay:10.37,2014-01-27 04:56:00,
2014-01-26 23:01:00,-6.9,-15.6,30.16,WNW,298,15.0,15.0,65,0.00,CLR,SKC,0.00,WeatherDisplay:10.37,2014-01-27 05:01:00,
2014-01-26 23:06:00,-7.1,-15.8,30.16,NW,308,21.9,21.9,65,0.00,CLR,SKC,0.00,WeatherDisplay:10.37,2014-01-27 05:06:00,
2014-01-26 23:11:00,-7.2,-15.9,30.16,NNW,328,13.8,13.8,65,0.00,CLR,SKC,0.00,WeatherDisplay:10.37,2014-01-27 05:11:00,
2014-01-26 23:16:00,-7.4,-16.1,30.16,NW,306,15.0,15.0,65,0.00,CLR,SKC,0.00,WeatherDisplay:10.37,2014-01-27 05:16:00,
2014-01-26 23:21:00,-7.5,-16.2,30.17,NW,307,15.0,15.0,65,0.00,CLR,SKC,0.00,WeatherDisplay:10.37,2014-01-27 05:21:00,
2014-01-26 23:26:00,-7.7,-16.7,30.17,WNW,288,27.6,27.6,64,0.00,CLR,SKC,0.00,WeatherDisplay:10.37,2014-01-27 05:26:00,
2014-01-26 23:31:00,-7.7,-16.7,30.17,NW,315,21.9,21.9,64,0.00,CLR,SKC,0.00,WeatherDisplay:10.37,2014-01-27 05:31:00,
2014-01-26 23:36:00,-7.9,-16.8,30.18,NW,312,23.0,23.0,64,0.00,CLR,SKC,0.00,WeatherDisplay:10.37,2014-01-27 05:36:00,
2014-01-26 23:41:00,-7.9,-16.8,30.18,WNW,284,16.1,16.1,64,0.00,CLR,SKC,0.00,WeatherDisplay:10.37,2014-01-27 05:41:00,
2014-01-26 23:46:00,-8.2,-16.8,30.19,NW,304,12.7,12.7,65,0.00,CLR,SKC,0.00,WeatherDisplay:10.37,2014-01-27 05:46:00,
2014-01-26 23:51:00,-8.5,-16.5,30.19,WNW,300,16.1,16.1,67,0.00,CLR,SKC,0.00,WeatherDisplay:10.37,2014-01-27 05:51:00,
2014-01-26 23:56:00,-8.7,-16.4,30.20,WNW,294,11.5,11.5,68,0.00,CLR,SKC,0.00,WeatherDisplay:10.37,2014-01-27 05:56:00,